createdAt,value
2019-02-10T00:06:24.305Z,8.51
2019-02-10T00:11:14.595Z,8.48
2019-02-10T00:16:52.156Z,8.49
2019-02-10T00:21:48.061Z,8.46
2019-02-10T00:26:43.956Z,8.44
2019-02-10T00:31:39.862Z,8.48
2019-02-10T00:36:35.759Z,8.46
2019-02-10T00:41:31.725Z,8.37
2019-02-10T00:46:27.617Z,8.38
2019-02-10T00:51:23.518Z,8.38
2019-02-10T00:56:20.090Z,8.30
2019-02-10T01:01:15.993Z,8.23
2019-02-10T01:06:11.886Z,8.22
2019-02-10T01:11:07.817Z,7.99
2019-02-10T01:16:03.824Z,8.04
2019-02-10T01:20:59.732Z,7.98
2019-02-10T01:25:55.628Z,7.88
2019-02-10T01:30:51.622Z,7.94
2019-02-10T01:35:47.514Z,7.97
2019-02-10T01:40:43.396Z,7.96
2019-02-10T01:45:39.280Z,8.02
2019-02-10T01:50:35.169Z,8.05
2019-02-10T01:55:32.945Z,8.03
2019-02-10T02:00:29.057Z,7.97
2019-02-10T02:05:25.058Z,7.90
2019-02-10T02:10:20.993Z,8.00
2019-02-10T02:15:16.878Z,7.91
2019-02-10T02:20:12.870Z,8.00
2019-02-10T02:25:11.060Z,8.06
2019-02-10T02:30:10.182Z,8.08
2019-02-10T02:35:06.140Z,7.98
2019-02-10T02:40:02.925Z,8.04
2019-02-10T02:44:58.817Z,8.09
2019-02-10T02:49:54.706Z,8.16
2019-02-10T02:54:50.662Z,8.20
2019-02-10T02:59:46.522Z,8.23
2019-02-10T03:04:42.410Z,8.30
2019-02-10T03:09:39.009Z,8.29
2019-02-10T03:14:34.880Z,8.34
2019-02-10T03:19:30.766Z,8.32
2019-02-10T03:24:27.396Z,8.22
2019-02-10T03:29:23.241Z,8.19
2019-02-10T03:34:19.134Z,8.19
2019-02-10T03:39:15.025Z,8.11
2019-02-10T03:44:10.910Z,8.11
2019-02-10T03:49:06.848Z,7.91
2019-02-10T03:54:08.321Z,8.04
2019-02-10T03:59:04.302Z,7.89
2019-02-10T04:04:00.174Z,7.86
2019-02-10T04:08:56.060Z,7.68
2019-02-10T04:13:51.963Z,7.83
2019-02-10T04:18:48.529Z,7.75
2019-02-10T04:23:45.463Z,7.65
2019-02-10T04:28:41.501Z,7.55
2019-02-10T04:33:37.395Z,7.56
2019-02-10T04:38:33.273Z,7.41
2019-02-10T04:43:29.175Z,7.50
2019-02-10T04:48:25.066Z,7.50
2019-02-10T04:53:21.056Z,7.52
2019-02-10T04:58:16.940Z,7.36
2019-02-10T05:03:12.827Z,7.35
2019-02-10T05:08:08.759Z,7.33
2019-02-10T05:13:04.799Z,7.26
2019-02-10T05:18:00.687Z,7.21
2019-02-10T05:22:56.573Z,7.18
2019-02-10T05:27:52.478Z,7.04
2019-02-10T05:32:48.348Z,7.12
2019-02-10T05:37:44.231Z,7.00
2019-02-10T05:42:40.113Z,6.90
2019-02-10T05:47:36.036Z,6.95
2019-02-10T05:52:31.919Z,6.75
2019-02-10T05:57:27.810Z,6.84
2019-02-10T06:02:25.624Z,6.75
2019-02-10T06:07:21.510Z,6.73
2019-02-10T06:12:17.423Z,6.79
2019-02-10T06:17:13.311Z,6.78
2019-02-10T06:22:09.206Z,6.77
2019-02-10T06:27:05.097Z,6.71
2019-02-10T06:32:00.997Z,6.73
2019-02-10T06:36:56.887Z,6.70
2019-02-10T06:41:52.769Z,6.66
2019-02-10T06:46:49.528Z,6.62
2019-02-10T06:51:45.419Z,6.56
2019-02-10T06:56:41.307Z,6.58
2019-02-10T07:01:39.176Z,6.52
2019-02-10T07:06:35.165Z,6.44
2019-02-10T07:11:31.070Z,6.49
2019-02-10T07:16:30.289Z,6.46
2019-02-10T07:21:29.477Z,6.42
2019-02-10T07:26:45.951Z,6.34
2019-02-10T07:31:45.731Z,6.38
2019-02-10T07:36:48.491Z,6.37
2019-02-10T07:42:22.249Z,6.39
2019-02-10T07:47:40.362Z,6.49
2019-02-10T07:52:45.931Z,6.51
2019-02-10T07:58:00.752Z,6.60
2019-02-10T08:03:22.165Z,6.65
2019-02-10T08:08:26.671Z,6.63
2019-02-10T08:13:39.314Z,6.58
2019-02-10T08:18:53.875Z,6.78
2019-02-10T08:24:26.338Z,6.86
2019-02-10T08:29:42.708Z,6.98
2019-02-10T08:34:51.967Z,7.04
2019-02-10T08:40:00.715Z,7.16
2019-02-10T08:45:13.175Z,7.24
2019-02-10T08:50:25.248Z,7.20
2019-02-10T08:55:21.679Z,7.31
2019-02-10T09:00:18.160Z,7.40
2019-02-10T09:05:14.603Z,7.55
2019-02-10T09:10:12.252Z,7.64
2019-02-10T09:15:10.524Z,7.63
2019-02-10T09:20:08.586Z,7.75
2019-02-10T09:25:07.714Z,7.92
2019-02-10T09:30:07.105Z,7.97
2019-02-10T09:35:05.098Z,8.19
2019-02-10T09:40:01.124Z,8.34
2019-02-10T09:44:57.026Z,8.62
2019-02-10T09:49:52.917Z,8.84
2019-02-10T09:54:48.804Z,9.05
2019-02-10T09:59:44.713Z,9.21
2019-02-10T10:04:40.621Z,9.32
2019-02-10T10:09:36.485Z,9.38
2019-02-10T10:14:32.497Z,9.48
2019-02-10T10:19:28.393Z,9.66
2019-02-10T10:24:27.113Z,9.73
2019-02-10T10:29:23.098Z,9.85
2019-02-10T10:34:18.983Z,9.90
2019-02-10T10:39:14.856Z,9.98
2019-02-10T10:44:10.845Z,10.11
2019-02-10T10:49:06.737Z,10.19
2019-02-10T10:54:05.979Z,10.25
2019-02-10T10:59:02.529Z,10.33
2019-02-10T11:03:58.438Z,10.31
2019-02-10T11:08:54.322Z,10.26
2019-02-10T11:13:50.350Z,10.17
2019-02-10T11:18:46.246Z,10.10
2019-02-10T11:23:42.635Z,10.04
2019-02-10T11:28:40.932Z,9.92
2019-02-10T11:33:36.925Z,9.82
2019-02-10T11:38:32.814Z,9.74
2019-02-10T11:43:28.725Z,9.59
2019-02-10T11:48:24.623Z,9.57
2019-02-10T11:53:20.803Z,9.45
2019-02-10T11:58:16.852Z,9.39
2019-02-10T12:03:15.193Z,9.48
2019-02-10T12:08:11.090Z,9.47
2019-02-10T12:13:07.019Z,9.51
2019-02-10T12:18:03.906Z,9.58
2019-02-10T12:23:00.507Z,9.53
2019-02-10T12:27:56.811Z,9.60
2019-02-10T12:32:52.722Z,9.56
2019-02-10T12:37:50.862Z,9.58
2019-02-10T12:42:47.471Z,9.64
2019-02-10T12:47:43.380Z,9.75
2019-02-10T12:52:40.065Z,9.72
2019-02-10T12:57:36.055Z,9.75
2019-02-10T13:02:32.182Z,9.71
2019-02-10T13:07:30.630Z,9.73
2019-02-10T13:12:27.307Z,9.79
2019-02-10T13:17:23.820Z,9.91
2019-02-10T13:22:19.706Z,9.93
2019-02-10T13:27:15.597Z,9.98
2019-02-10T13:32:11.544Z,9.97
2019-02-10T13:37:07.713Z,9.95
2019-02-10T13:42:03.621Z,9.87
2019-02-10T13:46:59.513Z,9.80
2019-02-10T13:51:55.399Z,9.76
2019-02-10T13:56:51.357Z,9.59
2019-02-10T14:01:47.301Z,9.46
2019-02-10T14:06:43.185Z,9.36
2019-02-10T14:11:39.199Z,9.28
2019-02-10T14:16:35.111Z,9.23
2019-02-10T14:21:31.068Z,9.11
2019-02-10T14:26:26.973Z,9.15
2019-02-10T14:31:22.906Z,9.12
2019-02-10T14:36:18.837Z,9.09
2019-02-10T14:41:14.741Z,9.09
2019-02-10T14:46:16.385Z,9.09
2019-02-10T14:51:12.894Z,9.15
2019-02-10T14:56:08.788Z,9.03
2019-02-10T15:01:04.773Z,9.02
2019-02-10T15:06:00.721Z,8.92
2019-02-10T15:10:56.789Z,8.98
2019-02-10T15:15:52.772Z,8.91
2019-02-10T15:20:48.816Z,8.86
2019-02-10T15:25:44.740Z,8.82
2019-02-10T15:30:40.694Z,8.74
2019-02-10T15:35:36.635Z,8.69
2019-02-10T15:40:32.756Z,8.71
2019-02-10T15:45:29.875Z,8.70
2019-02-10T15:50:26.711Z,8.65
2019-02-10T15:55:23.491Z,8.64
2019-02-10T16:00:25.577Z,8.63
2019-02-10T16:05:21.729Z,8.55
2019-02-10T16:10:17.751Z,8.54
2019-02-10T16:15:13.765Z,8.52
2019-02-10T16:20:11.879Z,8.52
2019-02-10T16:25:08.474Z,8.45
2019-02-10T16:30:07.678Z,8.44
2019-02-10T16:35:05.007Z,8.42
2019-02-10T16:40:01.032Z,8.34
2019-02-10T16:44:57.554Z,8.22
2019-02-10T16:49:54.598Z,8.03
2019-02-10T16:54:51.530Z,7.83
2019-02-10T16:59:48.751Z,7.69
2019-02-10T17:04:46.318Z,7.65
2019-02-10T17:09:42.669Z,7.63
2019-02-10T17:14:40.653Z,7.55
2019-02-10T17:19:36.543Z,7.56
2019-02-10T17:24:32.854Z,7.52
2019-02-10T17:29:28.842Z,7.35
2019-02-10T17:34:25.025Z,7.15
2019-02-10T17:39:21.770Z,6.93
2019-02-10T17:44:17.875Z,6.93
2019-02-10T17:49:13.973Z,6.90
2019-02-10T17:54:10.824Z,6.81
2019-02-10T17:59:06.803Z,6.77
2019-02-10T18:04:04.338Z,6.73
2019-02-10T18:09:00.426Z,6.75
2019-02-10T18:13:56.370Z,6.74
2019-02-10T18:18:54.187Z,6.62
2019-02-10T18:23:52.061Z,6.62
2019-02-10T18:28:50.686Z,6.64
2019-02-10T18:33:57.827Z,6.63
2019-02-10T18:38:58.727Z,6.48
2019-02-10T18:43:58.325Z,6.43
2019-02-10T18:48:56.722Z,6.32
2019-02-10T18:53:54.625Z,6.29
2019-02-10T19:04:21.504Z,5.83
2019-02-10T19:09:27.918Z,5.61
2019-02-10T19:14:28.488Z,5.48
2019-02-10T19:19:43.106Z,5.41
2019-02-10T19:24:58.512Z,5.31
2019-02-10T19:30:08.576Z,5.24
2019-02-10T19:35:21.732Z,5.18
2019-02-10T19:40:19.561Z,5.30
2019-02-10T19:45:17.393Z,5.13
2019-02-10T19:55:29.036Z,4.85
2019-02-10T20:00:26.842Z,4.83
2019-02-10T20:05:36.714Z,4.72
2019-02-10T20:10:52.639Z,4.68
2019-02-10T20:15:53.473Z,4.50
2019-02-10T20:20:51.462Z,4.41
2019-02-10T20:26:01.682Z,4.36
2019-02-10T20:31:16.110Z,4.43
2019-02-10T20:36:16.444Z,4.40
2019-02-10T20:41:14.231Z,4.36
2019-02-10T20:46:14.962Z,4.37
2019-02-10T20:51:18.793Z,4.38
2019-02-10T20:56:33.480Z,4.36
2019-02-10T21:01:40.668Z,4.26
2019-02-10T21:06:56.111Z,4.25
2019-02-10T21:12:00.300Z,4.09
2019-02-10T21:27:40.675Z,3.55
2019-02-10T21:32:38.469Z,3.51
2019-02-10T21:37:39.871Z,3.48
2019-02-10T21:42:52.562Z,3.45
2019-02-10T21:47:56.145Z,3.40
2019-02-10T21:52:52.193Z,3.46
2019-02-10T21:57:48.096Z,3.43
2019-02-10T22:02:43.999Z,3.42
2019-02-10T22:07:41.980Z,3.47
2019-02-10T22:12:39.622Z,3.53
2019-02-10T22:17:35.677Z,3.56
2019-02-10T22:22:31.566Z,3.57
2019-02-10T22:27:27.467Z,3.67
2019-02-10T22:32:23.439Z,3.68
2019-02-10T22:37:26.218Z,3.71
2019-02-10T22:42:22.118Z,3.74
2019-02-10T22:47:18.000Z,3.76
2019-02-10T22:52:14.132Z,3.81
2019-02-10T22:57:10.021Z,3.83
2019-02-10T23:02:06.215Z,3.83
2019-02-10T23:07:03.275Z,3.88
2019-02-10T23:11:59.295Z,3.77
2019-02-10T23:16:55.194Z,3.81
2019-02-10T23:21:51.077Z,3.78
2019-02-10T23:26:46.982Z,3.77
2019-02-10T23:31:42.879Z,3.84
2019-02-10T23:36:38.779Z,3.82
2019-02-10T23:41:34.781Z,3.82
2019-02-10T23:46:30.666Z,3.90
2019-02-10T23:51:26.564Z,3.93
2019-02-10T23:56:22.758Z,3.89
